Melbourne Essendon Airport
YMEN : now visible

Airfield :











YOU CAN JOIN US ON...

 
LOGIN :

Register | Disclaimer

   EN    FR    IT 

 









Legend :    VFR   Marginal VFR   IFR   Intensive IFR   Very Intensive IFR
Visi :
Ceiling :
>= 8 km
>= 3000ft
5 to 8 km
1000 to 3000 ft
1500m to 5 km
500 to 1000 ft
800 to 1500m
200 to 500 ft
< 800m
< 200 ft
Symbols :   Thunderstorms  Fog  Heavy snow  Heavy precipitations  Wind > 20 kt






- Airport Elevation : 282 ft
- IATA code : MEB


YMEN - Melbourne Essendon

CURRENT METAR :
  • 031530Z AUTO 23002KT 4400 +RA BKN067 OVC076 13/12 Q0996

EXPIRED METARs :
  • 031504Z AUTO 22005KT 6000 RA SCT037 SCT044 BKN065 13/12 Q0997
  • 031452Z AUTO 24006KT 7000 +RA SCT037 SCT044 BKN059 13/12 Q0997
  • 031430Z AUTO 24009KT 6000 +RA SCT008 SCT032 SCT042 13/12 Q0997
  • 031419Z AUTO 24009KT 6000 +RA SCT010 BKN032 OVC042 13/13 Q0997
  • 031400Z AUTO 25013KT 7000 +RA BKN010 OVC027 13/13 Q0997
  • 031359Z AUTO 25013KT 7000 +RA BKN010 OVC027 13/13 Q0997
  • 031333Z AUTO 24026G36KT 3800 RA SCT012 BKN025 BKN060 14/13 Q0997
  • 031300Z AUTO 01010KT 8000 +RA SCT061 BKN077 OVC085 16/15 Q0996

TAF N/A



MET'MAP, your aeronautical weather chart ! - Copyright ORBIFLY December 2007 - Disclaimer

ORBIFLY MET'MAP TEAM :

Programming & Development : Alexandra Zaïnal
Concept & original design : Baudouin d'Aumeries
Assistance for programming : Marc-Olivier Méhu
Technical & hardware support : Manuel Goepfert

Contact : metmap@orbifly.com




SOURCES & CREDITS :

   NOAA       Earth
Advisory